sensor_id;sensor_type;location;lat;lon;timestamp;pressure;altitude;pressure_sealevel;temperature;humidity
11750;BME280;5932;42.656;23.236;2022-07-01T00:00:39;93652.06;;;20.97;76.91
11750;BME280;5932;42.656;23.236;2022-07-01T00:03:06;93658.72;;;21.05;77.07
11750;BME280;5932;42.656;23.236;2022-07-01T00:05:33;93656.44;;;21.03;76.97
11750;BME280;5932;42.656;23.236;2022-07-01T00:07:59;93658.06;;;21.10;77.55
11750;BME280;5932;42.656;23.236;2022-07-01T00:10:30;93665.75;;;21.06;76.48
11750;BME280;5932;42.656;23.236;2022-07-01T00:12:57;93672.88;;;20.98;77.73
11750;BME280;5932;42.656;23.236;2022-07-01T00:15:24;93669.69;;;20.85;78.67
11750;BME280;5932;42.656;23.236;2022-07-01T00:17:50;93673.28;;;20.76;79.21
11750;BME280;5932;42.656;23.236;2022-07-01T00:20:17;93668.63;;;20.68;79.86
11750;BME280;5932;42.656;23.236;2022-07-01T00:22:44;93673.97;;;20.57;80.33
11750;BME280;5932;42.656;23.236;2022-07-01T00:25:11;93676.34;;;20.49;79.95
11750;BME280;5932;42.656;23.236;2022-07-01T00:27:40;93678.44;;;20.39;79.96
11750;BME280;5932;42.656;23.236;2022-07-01T00:30:09;93676.44;;;20.40;80.83
11750;BME280;5932;42.656;23.236;2022-07-01T00:32:36;93684.78;;;20.46;81.25
11750;BME280;5932;42.656;23.236;2022-07-01T00:35:04;93678.72;;;20.42;81.56
11750;BME280;5932;42.656;23.236;2022-07-01T00:37:31;93687.72;;;20.42;81.63
11750;BME280;5932;42.656;23.236;2022-07-01T00:39:57;93682.69;;;20.40;81.06
11750;BME280;5932;42.656;23.236;2022-07-01T00:42:25;93686.97;;;20.42;80.88
11750;BME280;5932;42.656;23.236;2022-07-01T00:44:53;93675.69;;;20.39;81.00
11750;BME280;5932;42.656;23.236;2022-07-01T00:47:20;93680.41;;;20.39;81.13
11750;BME280;5932;42.656;23.236;2022-07-01T00:49:47;93672.25;;;20.30;81.88
11750;BME280;5932;42.656;23.236;2022-07-01T00:52:14;93677.22;;;20.17;82.69
11750;BME280;5932;42.656;23.236;2022-07-01T00:54:42;93677.41;;;20.13;82.29
11750;BME280;5932;42.656;23.236;2022-07-01T00:57:10;93680.06;;;20.08;83.06
11750;BME280;5932;42.656;23.236;2022-07-01T00:59:39;93675.81;;;20.07;83.01
11750;BME280;5932;42.656;23.236;2022-07-01T01:02:08;93683.59;;;20.08;83.06
11750;BME280;5932;42.656;23.236;2022-07-01T01:04:35;93687.81;;;20.18;82.94
11750;BME280;5932;42.656;23.236;2022-07-01T01:07:03;93693.44;;;20.15;83.11
11750;BME280;5932;42.656;23.236;2022-07-01T01:09:30;93689.09;;;20.08;82.78
11750;BME280;5932;42.656;23.236;2022-07-01T01:11:57;93689.16;;;19.99;82.23
11750;BME280;5932;42.656;23.236;2022-07-01T01:14:24;93694.53;;;19.94;83.35
11750;BME280;5932;42.656;23.236;2022-07-01T01:16:51;93682.16;;;19.75;83.27
11750;BME280;5932;42.656;23.236;2022-07-01T01:19:19;93686.75;;;19.54;84.55
11750;BME280;5932;42.656;23.236;2022-07-01T01:21:47;93695.50;;;19.43;85.27
11750;BME280;5932;42.656;23.236;2022-07-01T01:24:14;93687.78;;;19.33;85.89
11750;BME280;5932;42.656;23.236;2022-07-01T01:26:41;93682.59;;;19.35;86.61
11750;BME280;5932;42.656;23.236;2022-07-01T01:29:08;93677.69;;;19.39;85.33
11750;BME280;5932;42.656;23.236;2022-07-01T01:31:35;93692.13;;;19.48;85.59
11750;BME280;5932;42.656;23.236;2022-07-01T01:34:02;93676.88;;;19.47;85.14
11750;BME280;5932;42.656;23.236;2022-07-01T01:36:29;93676.69;;;19.51;85.96
11750;BME280;5932;42.656;23.236;2022-07-01T01:38:57;93682.47;;;19.53;85.58
11750;BME280;5932;42.656;23.236;2022-07-01T01:41:26;93683.25;;;19.53;84.82
11750;BME280;5932;42.656;23.236;2022-07-01T01:43:53;93684.16;;;19.50;84.50
11750;BME280;5932;42.656;23.236;2022-07-01T01:46:20;93683.59;;;19.46;84.71
11750;BME280;5932;42.656;23.236;2022-07-01T01:48:46;93694.13;;;19.48;85.33
11750;BME280;5932;42.656;23.236;2022-07-01T01:51:13;93694.41;;;19.50;83.08
11750;BME280;5932;42.656;23.236;2022-07-01T01:53:40;93694.41;;;19.50;83.83
11750;BME280;5932;42.656;23.236;2022-07-01T01:56:08;93704.88;;;19.61;84.00
11750;BME280;5932;42.656;23.236;2022-07-01T01:58:35;93699.66;;;19.63;83.48
11750;BME280;5932;42.656;23.236;2022-07-01T02:01:02;93707.44;;;19.64;82.40
11750;BME280;5932;42.656;23.236;2022-07-01T02:03:29;93707.09;;;19.71;82.81
11750;BME280;5932;42.656;23.236;2022-07-01T02:05:55;93704.06;;;19.69;83.35
11750;BME280;5932;42.656;23.236;2022-07-01T02:08:22;93708.59;;;19.48;83.20
11750;BME280;5932;42.656;23.236;2022-07-01T02:10:49;93698.44;;;19.40;83.90
11750;BME280;5932;42.656;23.236;2022-07-01T02:13:17;93691.75;;;19.32;83.70
11750;BME280;5932;42.656;23.236;2022-07-01T02:15:44;93700.94;;;19.29;84.80
11750;BME280;5932;42.656;23.236;2022-07-01T02:18:11;93701.22;;;19.31;85.11
11750;BME280;5932;42.656;23.236;2022-07-01T02:20:38;93699.06;;;19.35;84.92
11750;BME280;5932;42.656;23.236;2022-07-01T02:23:04;93705.44;;;19.41;84.88
11750;BME280;5932;42.656;23.236;2022-07-01T02:25:31;93710.78;;;19.44;84.94
11750;BME280;5932;42.656;23.236;2022-07-01T02:27:58;93713.06;;;19.46;84.21
11750;BME280;5932;42.656;23.236;2022-07-01T02:30:26;93714.63;;;19.38;83.53
11750;BME280;5932;42.656;23.236;2022-07-01T02:32:53;93711.22;;;19.43;84.07
11750;BME280;5932;42.656;23.236;2022-07-01T02:35:20;93714.88;;;19.49;83.72
11750;BME280;5932;42.656;23.236;2022-07-01T02:37:48;93714.28;;;19.45;83.12
11750;BME280;5932;42.656;23.236;2022-07-01T02:40:14;93723.41;;;19.51;83.62
11750;BME280;5932;42.656;23.236;2022-07-01T02:42:41;93726.63;;;19.49;83.31
11750;BME280;5932;42.656;23.236;2022-07-01T02:45:08;93729.47;;;19.55;83.92
11750;BME280;5932;42.656;23.236;2022-07-01T02:47:38;93727.22;;;19.53;83.16
11750;BME280;5932;42.656;23.236;2022-07-01T02:50:06;93735.44;;;19.53;81.70
11750;BME280;5932;42.656;23.236;2022-07-01T02:52:33;93742.50;;;19.45;80.48
11750;BME280;5932;42.656;23.236;2022-07-01T02:55:00;93742.50;;;19.45;81.83
11750;BME280;5932;42.656;23.236;2022-07-01T02:57:28;93743.28;;;19.46;82.09
11750;BME280;5932;42.656;23.236;2022-07-01T02:59:55;93741.81;;;19.27;83.52
11750;BME280;5932;42.656;23.236;2022-07-01T03:02:22;93737.78;;;19.13;84.30
11750;BME280;5932;42.656;23.236;2022-07-01T03:04:51;93740.66;;;19.10;85.02
11750;BME280;5932;42.656;23.236;2022-07-01T03:07:19;93720.59;;;18.95;85.31
11750;BME280;5932;42.656;23.236;2022-07-01T03:09:47;93741.91;;;19.09;85.55
11750;BME280;5932;42.656;23.236;2022-07-01T03:12:14;93742.19;;;19.11;85.24
11750;BME280;5932;42.656;23.236;2022-07-01T03:14:55;93746.63;;;19.08;85.67
11750;BME280;5932;42.656;23.236;2022-07-01T03:17:23;93753.34;;;19.07;85.66
11750;BME280;5932;42.656;23.236;2022-07-01T03:19:51;93755.16;;;19.10;85.71
11750;BME280;5932;42.656;23.236;2022-07-01T03:22:19;93754.69;;;19.12;85.70
11750;BME280;5932;42.656;23.236;2022-07-01T03:24:46;93755.00;;;19.14;86.18
11750;BME280;5932;42.656;23.236;2022-07-01T03:27:13;93758.84;;;19.07;86.01
11750;BME280;5932;42.656;23.236;2022-07-01T03:29:43;93752.47;;;18.92;86.40
11750;BME280;5932;42.656;23.236;2022-07-01T03:32:11;93752.78;;;18.94;86.69
11750;BME280;5932;42.656;23.236;2022-07-01T03:34:38;93750.75;;;19.04;87.55
11750;BME280;5932;42.656;23.236;2022-07-01T03:37:08;93751.34;;;19.08;87.43
11750;BME280;5932;42.656;23.236;2022-07-01T03:39:36;93752.88;;;19.09;86.39
11750;BME280;5932;42.656;23.236;2022-07-01T03:42:05;93755.81;;;19.05;86.00
11750;BME280;5932;42.656;23.236;2022-07-01T03:44:32;93753.50;;;19.04;86.66
11750;BME280;5932;42.656;23.236;2022-07-01T03:46:59;93763.09;;;19.08;87.43
11750;BME280;5932;42.656;23.236;2022-07-01T03:49:26;93758.81;;;19.16;88.76
11750;BME280;5932;42.656;23.236;2022-07-01T03:51:53;93766.56;;;19.27;88.34
11750;BME280;5932;42.656;23.236;2022-07-01T03:54:21;93759.63;;;19.31;87.79
11750;BME280;5932;42.656;23.236;2022-07-01T03:56:58;93767.28;;;19.36;86.91
11750;BME280;5932;42.656;23.236;2022-07-01T03:59:25;93765.59;;;19.30;87.06
11750;BME280;5932;42.656;23.236;2022-07-01T04:01:52;93747.69;;;19.11;87.82
11750;BME280;5932;42.656;23.236;2022-07-01T04:04:19;93759.75;;;19.13;89.21
11750;BME280;5932;42.656;23.236;2022-07-01T04:06:46;93760.47;;;19.23;90.02
11750;BME280;5932;42.656;23.236;2022-07-01T04:09:15;93764.06;;;19.38;89.63
11750;BME280;5932;42.656;23.236;2022-07-01T04:11:44;93772.09;;;19.50;88.78
11750;BME280;5932;42.656;23.236;2022-07-01T04:14:12;93764.72;;;19.57;87.39
11750;BME280;5932;42.656;23.236;2022-07-01T04:16:39;93772.16;;;19.65;88.51
11750;BME280;5932;42.656;23.236;2022-07-01T04:19:07;93778.00;;;19.82;88.32
11750;BME280;5932;42.656;23.236;2022-07-01T04:21:36;93781.03;;;19.93;86.94
11750;BME280;5932;42.656;23.236;2022-07-01T04:24:20;93776.56;;;19.95;85.99
11750;BME280;5932;42.656;23.236;2022-07-01T04:26:51;93768.84;;;20.08;86.63
11750;BME280;5932;42.656;23.236;2022-07-01T04:29:18;93775.94;;;20.24;86.45
11750;BME280;5932;42.656;23.236;2022-07-01T04:31:45;93762.16;;;20.24;85.34
11750;BME280;5932;42.656;23.236;2022-07-01T04:34:13;93781.09;;;20.46;84.34
11750;BME280;5932;42.656;23.236;2022-07-01T04:36:39;93786.13;;;20.62;84.63
11750;BME280;5932;42.656;23.236;2022-07-01T04:39:07;93782.53;;;20.70;83.81
11750;BME280;5932;42.656;23.236;2022-07-01T04:41:34;93782.34;;;20.74;84.51
11750;BME280;5932;42.656;23.236;2022-07-01T04:44:20;93784.75;;;20.81;84.36
11750;BME280;5932;42.656;23.236;2022-07-01T04:46:47;93780.84;;;20.87;82.73
11750;BME280;5932;42.656;23.236;2022-07-01T04:49:14;93784.94;;;20.92;82.23
11750;BME280;5932;42.656;23.236;2022-07-01T04:51:41;93788.75;;;20.94;81.94
11750;BME280;5932;42.656;23.236;2022-07-01T04:54:08;93786.47;;;21.07;82.54
11750;BME280;5932;42.656;23.236;2022-07-01T04:56:36;93782.19;;;21.21;82.40
11750;BME280;5932;42.656;23.236;2022-07-01T04:59:03;93787.88;;;21.32;81.28
11750;BME280;5932;42.656;23.236;2022-07-01T05:01:31;93779.09;;;21.48;77.75
11750;BME280;5932;42.656;23.236;2022-07-01T05:03:59;93779.47;;;21.56;74.43
11750;BME280;5932;42.656;23.236;2022-07-01T05:06:26;93780.66;;;21.69;73.84
11750;BME280;5932;42.656;23.236;2022-07-01T05:08:53;93766.22;;;21.74;77.93
11750;BME280;5932;42.656;23.236;2022-07-01T05:11:19;93779.00;;;21.92;77.52
11750;BME280;5932;42.656;23.236;2022-07-01T05:13:46;93787.16;;;22.01;75.32
11750;BME280;5932;42.656;23.236;2022-07-01T05:16:14;93786.44;;;22.06;74.83
11750;BME280;5932;42.656;23.236;2022-07-01T05:18:43;93781.03;;;22.11;74.37
11750;BME280;5932;42.656;23.236;2022-07-01T05:21:27;93782.13;;;22.20;74.63
11750;BME280;5932;42.656;23.236;2022-07-01T05:24:11;93791.75;;;22.30;75.52
11750;BME280;5932;42.656;23.236;2022-07-01T05:26:38;93788.66;;;22.42;75.57
11750;BME280;5932;42.656;23.236;2022-07-01T05:29:05;93791.81;;;22.55;75.21
11750;BME280;5932;42.656;23.236;2022-07-01T05:31:32;93789.69;;;22.65;74.83
11750;BME280;5932;42.656;23.236;2022-07-01T05:34:00;93802.38;;;22.77;73.97
11750;BME280;5932;42.656;23.236;2022-07-01T05:36:27;93789.66;;;22.85;73.25
11750;BME280;5932;42.656;23.236;2022-07-01T05:38:54;93792.69;;;22.87;73.34
11750;BME280;5932;42.656;23.236;2022-07-01T05:41:20;93791.56;;;22.99;71.68
11750;BME280;5932;42.656;23.236;2022-07-01T05:43:47;93785.56;;;23.06;72.74
11750;BME280;5932;42.656;23.236;2022-07-01T05:46:14;93791.09;;;23.06;71.78
11750;BME280;5932;42.656;23.236;2022-07-01T05:48:41;93786.88;;;23.11;70.29
11750;BME280;5932;42.656;23.236;2022-07-01T05:51:09;93794.72;;;23.18;71.34
11750;BME280;5932;42.656;23.236;2022-07-01T05:53:35;93790.53;;;23.28;71.80
11750;BME280;5932;42.656;23.236;2022-07-01T05:56:02;93792.88;;;23.35;72.63
11750;BME280;5932;42.656;23.236;2022-07-01T05:58:29;93791.41;;;23.39;70.91
11750;BME280;5932;42.656;23.236;2022-07-01T06:00:56;93793.00;;;23.46;70.38
11750;BME280;5932;42.656;23.236;2022-07-01T06:03:23;93802.13;;;23.57;70.39
11750;BME280;5932;42.656;23.236;2022-07-01T06:05:49;93800.41;;;23.65;70.40
11750;BME280;5932;42.656;23.236;2022-07-01T06:08:18;93803.00;;;23.74;69.63
11750;BME280;5932;42.656;23.236;2022-07-01T06:10:44;93807.59;;;23.83;70.01
11750;BME280;5932;42.656;23.236;2022-07-01T06:13:11;93798.53;;;23.82;69.14
11750;BME280;5932;42.656;23.236;2022-07-01T06:15:38;93801.06;;;23.92;69.32
11750;BME280;5932;42.656;23.236;2022-07-01T06:18:05;93801.47;;;24.10;70.75
11750;BME280;5932;42.656;23.236;2022-07-01T06:20:31;93807.28;;;24.12;70.42
11750;BME280;5932;42.656;23.236;2022-07-01T06:22:59;93808.53;;;24.17;68.81
11750;BME280;5932;42.656;23.236;2022-07-01T06:25:27;93808.81;;;24.19;68.18
11750;BME280;5932;42.656;23.236;2022-07-01T06:27:54;93812.34;;;24.19;68.06
11750;BME280;5932;42.656;23.236;2022-07-01T06:30:21;93813.38;;;24.22;68.80
11750;BME280;5932;42.656;23.236;2022-07-01T06:32:48;93819.69;;;24.28;69.69
11750;BME280;5932;42.656;23.236;2022-07-01T06:35:15;93816.94;;;24.33;68.64
11750;BME280;5932;42.656;23.236;2022-07-01T06:37:41;93810.44;;;24.42;69.47
11750;BME280;5932;42.656;23.236;2022-07-01T06:40:09;93806.19;;;24.52;69.01
11750;BME280;5932;42.656;23.236;2022-07-01T06:42:37;93815.25;;;24.52;68.64
11750;BME280;5932;42.656;23.236;2022-07-01T06:45:05;93810.75;;;24.60;68.76
11750;BME280;5932;42.656;23.236;2022-07-01T06:47:32;93811.03;;;24.68;68.37
11750;BME280;5932;42.656;23.236;2022-07-01T06:49:58;93810.84;;;24.77;69.14
11750;BME280;5932;42.656;23.236;2022-07-01T06:52:25;93811.66;;;24.94;70.91
11750;BME280;5932;42.656;23.236;2022-07-01T06:54:52;93810.38;;;25.01;66.54
11750;BME280;5932;42.656;23.236;2022-07-01T06:57:19;93815.19;;;25.06;69.04
11750;BME280;5932;42.656;23.236;2022-07-01T06:59:47;93811.41;;;25.09;70.47
11750;BME280;5932;42.656;23.236;2022-07-01T07:02:14;93808.16;;;25.21;69.95
11750;BME280;5932;42.656;23.236;2022-07-01T07:04:41;93816.75;;;25.34;65.20
11750;BME280;5932;42.656;23.236;2022-07-01T07:07:08;93811.44;;;25.36;65.80
11750;BME280;5932;42.656;23.236;2022-07-01T07:09:34;93811.72;;;25.44;64.81
11750;BME280;5932;42.656;23.236;2022-07-01T07:12:02;93818.03;;;25.44;64.81
11750;BME280;5932;42.656;23.236;2022-07-01T07:14:28;93815.53;;;25.52;65.63
11750;BME280;5932;42.656;23.236;2022-07-01T07:16:58;93813.25;;;25.62;63.07
11750;BME280;5932;42.656;23.236;2022-07-01T07:19:24;93813.00;;;25.65;63.41
11750;BME280;5932;42.656;23.236;2022-07-01T07:21:51;93818.06;;;25.67;62.81
11750;BME280;5932;42.656;23.236;2022-07-01T07:24:18;93816.78;;;25.62;63.37
11750;BME280;5932;42.656;23.236;2022-07-01T07:26:45;93821.56;;;25.67;61.97
11750;BME280;5932;42.656;23.236;2022-07-01T07:29:13;93827.13;;;25.62;63.35
11750;BME280;5932;42.656;23.236;2022-07-01T07:31:39;93817.03;;;25.70;63.19
11750;BME280;5932;42.656;23.236;2022-07-01T07:34:08;93820.31;;;25.90;62.35
11750;BME280;5932;42.656;23.236;2022-07-01T07:36:34;93812.72;;;25.85;59.99
11750;BME280;5932;42.656;23.236;2022-07-01T07:39:01;93823.56;;;25.89;60.60
11750;BME280;5932;42.656;23.236;2022-07-01T07:41:30;93815.00;;;25.98;61.17
11750;BME280;5932;42.656;23.236;2022-07-01T07:43:56;93821.81;;;26.13;65.22
11750;BME280;5932;42.656;23.236;2022-07-01T07:46:23;93820.25;;;26.23;62.61
11750;BME280;5932;42.656;23.236;2022-07-01T07:48:50;93809.41;;;26.31;61.07
11750;BME280;5932;42.656;23.236;2022-07-01T07:51:18;93815.88;;;26.50;59.64
11750;BME280;5932;42.656;23.236;2022-07-01T07:53:48;93812.81;;;26.59;60.15
11750;BME280;5932;42.656;23.236;2022-07-01T07:56:15;93813.53;;;26.71;59.99
11750;BME280;5932;42.656;23.236;2022-07-01T07:58:41;93813.72;;;26.89;58.84
11750;BME280;5932;42.656;23.236;2022-07-01T08:01:09;93810.69;;;26.87;56.88
11750;BME280;5932;42.656;23.236;2022-07-01T08:03:36;93817.00;;;26.88;55.93
11750;BME280;5932;42.656;23.236;2022-07-01T08:06:03;93820.03;;;26.90;57.09
11750;BME280;5932;42.656;23.236;2022-07-01T08:08:31;93815.44;;;26.98;57.36
11750;BME280;5932;42.656;23.236;2022-07-01T08:10:58;93803.75;;;27.10;55.67
11750;BME280;5932;42.656;23.236;2022-07-01T08:13:25;93806.25;;;27.14;57.10
11750;BME280;5932;42.656;23.236;2022-07-01T08:15:52;93803.66;;;27.21;55.45
11750;BME280;5932;42.656;23.236;2022-07-01T08:18:19;93813.00;;;27.24;56.12
11750;BME280;5932;42.656;23.236;2022-07-01T08:20:46;93794.06;;;27.22;55.91
11750;BME280;5932;42.656;23.236;2022-07-01T08:23:13;93799.22;;;27.43;56.75
11750;BME280;5932;42.656;23.236;2022-07-01T08:25:41;93795.66;;;27.48;55.50
11750;BME280;5932;42.656;23.236;2022-07-01T08:28:08;93791.53;;;27.60;56.30
11750;BME280;5932;42.656;23.236;2022-07-01T08:30:35;93803.63;;;27.68;52.46
11750;BME280;5932;42.656;23.236;2022-07-01T08:33:02;93798.97;;;27.76;52.93
11750;BME280;5932;42.656;23.236;2022-07-01T08:35:29;93789.44;;;27.95;55.12
11750;BME280;5932;42.656;23.236;2022-07-01T08:37:56;93793.41;;;28.05;53.33
11750;BME280;5932;42.656;23.236;2022-07-01T08:40:25;93792.78;;;28.18;51.99
11750;BME280;5932;42.656;23.236;2022-07-01T08:42:57;93798.69;;;28.33;54.96
11750;BME280;5932;42.656;23.236;2022-07-01T08:45:25;93791.25;;;28.41;51.20
11750;BME280;5932;42.656;23.236;2022-07-01T08:47:55;93788.84;;;28.51;51.99
11750;BME280;5932;42.656;23.236;2022-07-01T08:50:23;93795.00;;;28.68;52.13
11750;BME280;5932;42.656;23.236;2022-07-01T08:52:51;93799.47;;;28.76;50.73
11750;BME280;5932;42.656;23.236;2022-07-01T08:55:18;93807.91;;;28.89;50.91
11750;BME280;5932;42.656;23.236;2022-07-01T08:57:45;93800.22;;;28.95;51.42
11750;BME280;5932;42.656;23.236;2022-07-01T09:00:14;93807.94;;;29.08;49.59
11750;BME280;5932;42.656;23.236;2022-07-01T09:02:55;93787.59;;;29.13;48.94
11750;BME280;5932;42.656;23.236;2022-07-01T09:05:24;93798.31;;;29.28;47.48
11750;BME280;5932;42.656;23.236;2022-07-01T09:07:56;93805.69;;;29.25;46.56
11750;BME280;5932;42.656;23.236;2022-07-01T09:10:24;93799.25;;;29.12;46.82
11750;BME280;5932;42.656;23.236;2022-07-01T09:12:50;93796.88;;;29.21;47.88
11750;BME280;5932;42.656;23.236;2022-07-01T09:15:26;93803.47;;;29.37;50.42
11750;BME280;5932;42.656;23.236;2022-07-01T09:17:56;93794.34;;;29.55;46.93
11750;BME280;5932;42.656;23.236;2022-07-01T09:20:24;93802.28;;;29.64;44.92
11750;BME280;5932;42.656;23.236;2022-07-01T09:22:59;93800.34;;;29.59;45.96
11750;BME280;5932;42.656;23.236;2022-07-01T09:25:27;93796.13;;;29.52;45.90
11750;BME280;5932;42.656;23.236;2022-07-01T09:28:03;93798.94;;;29.52;48.75
11750;BME280;5932;42.656;23.236;2022-07-01T09:30:32;93794.47;;;29.62;47.21
11750;BME280;5932;42.656;23.236;2022-07-01T09:33:11;93794.47;;;29.44;44.23
11750;BME280;5932;42.656;23.236;2022-07-01T09:35:39;93797.28;;;29.44;46.57
11750;BME280;5932;42.656;23.236;2022-07-01T09:38:07;93796.94;;;29.66;46.78
11750;BME280;5932;42.656;23.236;2022-07-01T09:40:46;93791.25;;;29.90;44.60
11750;BME280;5932;42.656;23.236;2022-07-01T09:43:20;93791.25;;;29.90;43.49
11750;BME280;5932;42.656;23.236;2022-07-01T09:46:07;93791.09;;;29.82;42.79
11750;BME280;5932;42.656;23.236;2022-07-01T09:48:45;93782.38;;;29.73;43.91
11750;BME280;5932;42.656;23.236;2022-07-01T09:51:13;93782.94;;;29.84;45.78
11750;BME280;5932;42.656;23.236;2022-07-01T09:53:41;93784.16;;;30.02;43.78
11750;BME280;5932;42.656;23.236;2022-07-01T09:56:08;93776.44;;;30.21;43.76
11750;BME280;5932;42.656;23.236;2022-07-01T09:58:35;93780.97;;;30.37;43.97
11750;BME280;5932;42.656;23.236;2022-07-01T10:01:04;93772.59;;;30.63;44.04
11750;BME280;5932;42.656;23.236;2022-07-01T10:03:33;93772.03;;;30.78;39.68
11750;BME280;5932;42.656;23.236;2022-07-01T10:06:12;93775.19;;;30.88;39.26
11750;BME280;5932;42.656;23.236;2022-07-01T10:08:50;93766.84;;;31.08;37.98
11750;BME280;5932;42.656;23.236;2022-07-01T10:11:52;93771.31;;;31.24;38.21
11750;BME280;5932;42.656;23.236;2022-07-01T10:14:24;93779.97;;;31.47;34.19
11750;BME280;5932;42.656;23.236;2022-07-01T10:16:51;93775.81;;;31.61;33.24
11750;BME280;5932;42.656;23.236;2022-07-01T10:19:27;93769.09;;;31.64;36.51
11750;BME280;5932;42.656;23.236;2022-07-01T10:22:00;93768.44;;;31.71;34.08
11750;BME280;5932;42.656;23.236;2022-07-01T10:24:27;93762.84;;;31.71;34.58
11750;BME280;5932;42.656;23.236;2022-07-01T10:26:59;93758.84;;;31.87;35.34
11750;BME280;5932;42.656;23.236;2022-07-01T10:29:30;93758.75;;;31.93;30.56
11750;BME280;5932;42.656;23.236;2022-07-01T10:32:08;93756.34;;;31.76;29.11
11750;BME280;5932;42.656;23.236;2022-07-01T10:34:39;93752.31;;;31.64;30.41
11750;BME280;5932;42.656;23.236;2022-07-01T10:37:08;93755.66;;;31.63;31.48
11750;BME280;5932;42.656;23.236;2022-07-01T10:39:57;93755.50;;;31.68;30.83
11750;BME280;5932;42.656;23.236;2022-07-01T10:42:31;93747.78;;;31.82;29.12
11750;BME280;5932;42.656;23.236;2022-07-01T10:45:09;93745.34;;;31.99;28.87
11750;BME280;5932;42.656;23.236;2022-07-01T10:47:37;93735.69;;;32.07;29.25
11750;BME280;5932;42.656;23.236;2022-07-01T10:50:08;93730.03;;;32.28;28.17
11750;BME280;5932;42.656;23.236;2022-07-01T10:52:35;93735.72;;;32.43;28.96
11750;BME280;5932;42.656;23.236;2022-07-01T10:55:04;93730.59;;;32.55;27.62
11750;BME280;5932;42.656;23.236;2022-07-01T10:57:37;93730.63;;;32.62;27.89
11750;BME280;5932;42.656;23.236;2022-07-01T11:00:32;93732.38;;;32.73;28.90
11750;BME280;5932;42.656;23.236;2022-07-01T11:03:14;93739.84;;;32.78;28.54
11750;BME280;5932;42.656;23.236;2022-07-01T11:05:44;93736.63;;;32.66;26.67
11750;BME280;5932;42.656;23.236;2022-07-01T11:08:12;93737.78;;;32.42;26.71
11750;BME280;5932;42.656;23.236;2022-07-01T11:10:40;93731.34;;;32.55;27.95
11750;BME280;5932;42.656;23.236;2022-07-01T11:13:07;93719.03;;;32.66;28.87
11750;BME280;5932;42.656;23.236;2022-07-01T11:15:34;93735.41;;;32.90;25.61
11750;BME280;5932;42.656;23.236;2022-07-01T11:18:03;93734.78;;;33.12;26.50
11750;BME280;5932;42.656;23.236;2022-07-01T11:20:32;93727.34;;;33.37;26.63
11750;BME280;5932;42.656;23.236;2022-07-01T11:23:00;93731.50;;;33.51;26.31
11750;BME280;5932;42.656;23.236;2022-07-01T11:25:27;93731.34;;;33.64;26.24
11750;BME280;5932;42.656;23.236;2022-07-01T11:27:56;93723.31;;;33.83;24.93
11750;BME280;5932;42.656;23.236;2022-07-01T11:30:23;93732.28;;;33.97;25.71
11750;BME280;5932;42.656;23.236;2022-07-01T11:32:52;93729.50;;;34.04;25.77
11750;BME280;5932;42.656;23.236;2022-07-01T11:35:21;93726.69;;;34.12;22.00
11750;BME280;5932;42.656;23.236;2022-07-01T11:38:11;93721.81;;;34.13;24.37
11750;BME280;5932;42.656;23.236;2022-07-01T11:40:57;93718.78;;;34.26;23.73
11750;BME280;5932;42.656;23.236;2022-07-01T11:43:26;93725.16;;;34.34;25.31
11750;BME280;5932;42.656;23.236;2022-07-01T11:45:54;93707.72;;;34.43;22.77
11750;BME280;5932;42.656;23.236;2022-07-01T11:48:35;93715.22;;;34.48;22.61
11750;BME280;5932;42.656;23.236;2022-07-01T11:51:10;93704.44;;;34.69;24.47
11750;BME280;5932;42.656;23.236;2022-07-01T11:53:40;93715.72;;;34.69;24.90
11750;BME280;5932;42.656;23.236;2022-07-01T11:56:08;93706.69;;;34.70;24.16
11750;BME280;5932;42.656;23.236;2022-07-01T11:58:42;93699.47;;;34.92;24.25
11750;BME280;5932;42.656;23.236;2022-07-01T12:01:09;93701.72;;;35.01;23.48
11750;BME280;5932;42.656;23.236;2022-07-01T12:03:36;93696.63;;;35.07;24.83
11750;BME280;5932;42.656;23.236;2022-07-01T12:06:04;93696.78;;;35.09;24.43
11750;BME280;5932;42.656;23.236;2022-07-01T12:08:31;93693.41;;;35.11;23.32
11750;BME280;5932;42.656;23.236;2022-07-01T12:10:59;93694.09;;;35.26;23.10
11750;BME280;5932;42.656;23.236;2022-07-01T12:13:26;93688.00;;;35.37;23.27
11750;BME280;5932;42.656;23.236;2022-07-01T12:15:53;93689.41;;;35.21;23.13
11750;BME280;5932;42.656;23.236;2022-07-01T12:18:20;93687.97;;;35.13;23.09
11750;BME280;5932;42.656;23.236;2022-07-01T12:20:49;93680.53;;;35.25;23.26
11750;BME280;5932;42.656;23.236;2022-07-01T12:23:16;93684.47;;;35.29;23.29
11750;BME280;5932;42.656;23.236;2022-07-01T12:25:48;93679.38;;;35.03;23.00
11750;BME280;5932;42.656;23.236;2022-07-01T12:28:30;93681.25;;;35.01;23.83
11750;BME280;5932;42.656;23.236;2022-07-01T12:31:02;93684.00;;;35.16;23.92
11750;BME280;5932;42.656;23.236;2022-07-01T12:33:29;93684.03;;;35.08;24.23
11750;BME280;5932;42.656;23.236;2022-07-01T12:35:56;93690.44;;;34.93;23.42
11750;BME280;5932;42.656;23.236;2022-07-01T12:38:22;93689.22;;;34.79;24.33
11750;BME280;5932;42.656;23.236;2022-07-01T12:40:49;93686.25;;;34.70;21.56
11750;BME280;5932;42.656;23.236;2022-07-01T12:43:26;93676.84;;;34.75;23.24
11750;BME280;5932;42.656;23.236;2022-07-01T12:45:57;93669.66;;;34.97;23.44
11750;BME280;5932;42.656;23.236;2022-07-01T12:48:26;93675.13;;;35.19;23.98
11750;BME280;5932;42.656;23.236;2022-07-01T12:50:54;93675.25;;;35.36;22.03
11750;BME280;5932;42.656;23.236;2022-07-01T12:53:22;93665.22;;;35.43;22.70
11750;BME280;5932;42.656;23.236;2022-07-01T12:55:51;93646.63;;;35.47;22.73
11750;BME280;5932;42.656;23.236;2022-07-01T12:58:20;93667.09;;;35.72;23.07
11750;BME280;5932;42.656;23.236;2022-07-01T13:00:48;93675.13;;;35.76;22.48
11750;BME280;5932;42.656;23.236;2022-07-01T13:03:19;93669.94;;;35.90;22.11
11750;BME280;5932;42.656;23.236;2022-07-01T13:05:48;93670.66;;;35.98;21.46
11750;BME280;5932;42.656;23.236;2022-07-01T13:08:15;93665.28;;;36.09;21.77